Time;durP1;ratioP1;P1;durP2;ratioP2;P2;SDS_P1;SDS_P2;PMS_P1;PMS_P2;Temp;Humidity;BMP_temperature;BMP_pressure;BME280_temperature;BME280_humidity;BME280_pressure;Samples;Min_cycle;Max_cycle;Signal;HPM_P1;HPM_P2
2023/07/27 00:00:40;;;;;;;;;4.00;2.75;;;;;22.00;51.68;100468.34;5034539;28;45427;-78
2023/07/27 00:03:06;;;;;;;;;1.00;1.00;;;;;21.99;51.37;100471.97;5032134;28;56514;-78
2023/07/27 00:05:31;;;;;;;;;3.25;2.00;;;;;21.98;51.91;100462.28;5037608;28;45305;-78
2023/07/27 00:07:57;;;;;;;;;2.00;2.00;;;;;21.97;52.02;100463.25;5020448;28;74447;-77
2023/07/27 00:10:24;;;;;;;;;4.25;1.75;;;;;21.98;51.81;100462.28;5015870;28;45816;-79
2023/07/27 00:12:50;;;;;;;;;2.50;1.00;;;;;21.95;53.44;100454.53;5025481;28;45434;-78
2023/07/27 00:15:15;;;;;;;;;2.25;1.25;;;;;21.95;52.45;100466.03;5049426;28;45502;-79
2023/07/27 00:17:41;;;;;;;;;1.00;0.75;;;;;21.93;52.50;100456.47;5029251;28;45360;-78
2023/07/27 00:20:06;;;;;;;;;1.75;0.75;;;;;21.93;52.51;100457.31;5033952;28;45466;-79
2023/07/27 00:22:32;;;;;;;;;2.75;1.00;;;;;21.94;52.38;100461.69;5035032;28;45431;-78
2023/07/27 00:24:57;;;;;;;;;0.50;0.00;;;;;21.88;52.70;100454.16;5028105;28;67505;-78
2023/07/27 00:27:22;;;;;;;;;3.75;1.00;;;;;21.88;54.51;100448.00;5023581;28;61068;-78
2023/07/27 00:29:48;;;;;;;;;2.50;2.50;;;;;21.87;53.38;100435.63;5034914;28;64450;-79
2023/07/27 00:32:13;;;;;;;;;1.00;1.00;;;;;21.85;53.71;100437.56;5014474;28;45415;-79
2023/07/27 00:34:38;;;;;;;;;1.25;1.25;;;;;21.84;54.08;100441.22;5033072;28;60555;-79
2023/07/27 00:37:04;;;;;;;;;3.00;1.00;;;;;21.80;54.10;100432.63;5031805;28;60850;-78
2023/07/27 00:39:29;;;;;;;;;2.00;1.75;;;;;21.78;54.88;100423.91;5035487;28;45334;-77
2023/07/27 00:41:54;;;;;;;;;1.50;1.00;;;;;21.74;55.07;100425.09;5033814;28;61421;-78
2023/07/27 00:44:20;;;;;;;;;1.00;1.00;;;;;21.71;54.61;100428.88;5034729;28;61903;-77
2023/07/27 00:46:45;;;;;;;;;1.00;1.00;;;;;21.73;54.52;100432.25;5031859;28;63047;-77
2023/07/27 00:49:11;;;;;;;;;2.00;2.00;;;;;21.74;54.57;100428.63;5034156;28;52479;-77
2023/07/27 00:51:40;;;;;;;;;1.00;1.00;;;;;21.76;54.50;100437.34;5022236;28;60496;-78
2023/07/27 00:54:06;;;;;;;;;2.75;1.75;;;;;21.76;55.03;100426.69;5036433;28;45478;-77
2023/07/27 00:56:32;;;;;;;;;1.00;1.00;;;;;21.76;54.57;100418.72;5036295;28;46276;-77
2023/07/27 00:59:00;;;;;;;;;2.00;2.00;;;;;21.76;54.75;100417.84;5038272;28;51470;-77
2023/07/27 01:01:26;;;;;;;;;1.75;1.00;;;;;21.77;55.05;100422.22;5038668;28;45379;-78
2023/07/27 01:03:52;;;;;;;;;4.00;1.00;;;;;21.78;55.11;100418.59;5040037;28;45534;-77
2023/07/27 01:06:17;;;;;;;;;1.50;1.50;;;;;21.70;55.18;100418.34;5039265;28;45574;-79
2023/07/27 01:08:43;;;;;;;;;1.25;1.00;;;;;21.76;55.16;100417.84;5036018;28;64410;-78
2023/07/27 01:11:12;;;;;;;;;1.25;1.00;;;;;21.76;55.62;100415.19;5037033;28;45607;-78
2023/07/27 01:13:41;;;;;;;;;1.75;1.00;;;;;21.71;55.32;100412.03;5035933;28;45403;-78
2023/07/27 01:16:12;;;;;;;;;1.00;1.00;;;;;21.71;55.78;100404.03;5036147;28;46563;-78
2023/07/27 01:18:40;;;;;;;;;1.50;1.00;;;;;21.72;55.54;100398.59;5027999;28;45732;-78
2023/07/27 01:21:08;;;;;;;;;2.50;1.00;;;;;21.71;55.71;100401.38;5033260;28;45466;-78
2023/07/27 01:24:11;;;;;;;;;1.00;1.00;;;;;21.71;56.16;100390.72;5021140;28;45517;-78
2023/07/27 01:26:40;;;;;;;;;1.50;1.00;;;;;21.69;56.46;100396.19;5030555;28;45634;-76
2023/07/27 01:29:09;;;;;;;;;0.50;0.50;;;;;21.67;55.77;100397.28;5035941;28;45356;-77
2023/07/27 01:31:41;;;;;;;;;1.75;1.00;;;;;21.65;55.25;100396.53;5032713;28;45415;-77
2023/07/27 01:34:14;;;;;;;;;4.00;1.00;;;;;21.63;55.65;100402.00;5033747;28;45569;-77
2023/07/27 01:36:40;;;;;;;;;1.00;1.00;;;;;21.65;56.00;100397.38;5036317;28;46825;-78
2023/07/27 01:39:08;;;;;;;;;2.25;1.00;;;;;21.63;56.04;100390.50;5030090;28;45885;-77
2023/07/27 01:41:36;;;;;;;;;0.50;0.50;;;;;21.64;55.66;100390.38;5035516;28;45336;-78
2023/07/27 01:44:02;;;;;;;;;1.50;1.50;;;;;21.58;55.39;100380.19;5034856;28;45569;-78
2023/07/27 01:46:29;;;;;;;;;2.00;1.00;;;;;21.62;55.56;100379.00;5034039;28;57396;-78
2023/07/27 01:48:56;;;;;;;;;0.50;0.50;;;;;21.58;56.49;100375.75;5033467;28;45762;-77
2023/07/27 01:51:22;;;;;;;;;0.75;0.75;;;;;21.57;56.38;100371.38;5038031;28;45408;-76
2023/07/27 01:53:48;;;;;;;;;1.00;1.00;;;;;21.54;56.11;100376.94;5037933;28;49716;-77
2023/07/27 01:56:14;;;;;;;;;2.00;2.00;;;;;21.57;56.40;100371.38;5036417;28;46233;-77
2023/07/27 01:58:39;;;;;;;;;1.75;0.75;;;;;21.54;56.29;100373.44;5035017;28;52757;-78
2023/07/27 02:01:05;;;;;;;;;1.00;1.00;;;;;21.55;55.98;100377.81;5036171;28;64194;-78
2023/07/27 02:03:31;;;;;;;;;1.00;1.00;;;;;21.50;56.67;100361.34;5033986;28;45259;-78
2023/07/27 02:05:57;;;;;;;;;2.00;0.25;;;;;21.43;55.84;100353.78;5038415;28;46145;-78
2023/07/27 02:08:22;;;;;;;;;1.25;1.25;;;;;21.44;56.48;100359.94;5022124;28;47552;-77
2023/07/27 02:10:53;;;;;;;;;1.00;0.00;;;;;21.46;56.44;100367.84;5035134;28;45332;-77
2023/07/27 02:13:23;;;;;;;;;0.00;0.00;;;;;21.43;56.78;100363.59;5037481;28;45296;-79
2023/07/27 02:15:53;;;;;;;;;6.50;0.00;;;;;21.42;56.26;100370.75;5034162;28;46503;-79
2023/07/27 02:18:22;;;;;;;;;1.00;1.00;;;;;21.39;56.91;100370.97;5037463;28;45246;-79
2023/07/27 02:20:49;;;;;;;;;1.00;1.00;;;;;21.36;56.49;100360.56;5031040;28;45422;-80
2023/07/27 02:23:15;;;;;;;;;1.00;1.00;;;;;21.35;57.41;100347.38;5033540;28;45488;-79
2023/07/27 02:25:40;;;;;;;;;3.00;0.75;;;;;21.31;56.56;100348.59;5034622;28;61208;-79
2023/07/27 02:28:09;;;;;;;;;0.25;0.25;;;;;21.22;57.04;100337.69;5057048;28;64432;-79
2023/07/27 02:30:34;;;;;;;;;0.75;0.75;;;;;21.27;56.78;100347.97;5030697;28;45591;-80
2023/07/27 02:33:00;;;;;;;;;2.00;0.50;;;;;21.23;56.84;100339.38;5033515;28;62927;-79
2023/07/27 02:35:25;;;;;;;;;0.00;0.00;;;;;21.22;56.64;100351.00;5034060;28;45830;-79
2023/07/27 02:37:50;;;;;;;;;2.50;1.00;;;;;21.20;56.98;100346.78;5033170;28;64472;-77
2023/07/27 02:40:16;;;;;;;;;0.25;0.25;;;;;21.21;57.40;100349.31;5032769;28;67485;-78
2023/07/27 02:42:41;;;;;;;;;1.00;1.00;;;;;21.20;57.31;100344.09;5034450;28;45308;-77
2023/07/27 02:45:07;;;;;;;;;0.75;0.00;;;;;21.18;57.67;100338.06;5027442;28;45426;-77
2023/07/27 02:47:32;;;;;;;;;1.00;1.00;;;;;21.14;58.32;100341.91;5034143;28;45461;-77
2023/07/27 02:49:57;;;;;;;;;0.00;0.00;;;;;21.12;58.01;100338.53;5031573;28;56943;-78
2023/07/27 02:52:23;;;;;;;;;3.25;1.00;;;;;21.10;58.54;100333.31;5023503;28;46436;-78
2023/07/27 02:54:49;;;;;;;;;1.00;0.75;;;;;21.04;58.49;100334.66;5019124;28;68487;-78
2023/07/27 02:57:14;;;;;;;;;2.00;1.00;;;;;21.03;58.82;100334.75;5053144;28;45757;-78
2023/07/27 02:59:40;;;;;;;;;0.00;0.00;;;;;20.98;59.32;100340.47;5015529;28;45799;-77
2023/07/27 03:02:05;;;;;;;;;0.00;0.00;;;;;20.95;58.18;100337.19;5018589;28;45333;-77
2023/07/27 03:04:30;;;;;;;;;0.50;0.25;;;;;20.93;59.10;100339.97;5026360;28;46529;-77
2023/07/27 03:06:56;;;;;;;;;2.00;0.00;;;;;20.90;58.80;100334.03;5034290;28;72157;-77
2023/07/27 03:09:22;;;;;;;;;0.00;0.00;;;;;20.91;59.23;100352.53;5033391;28;49115;-77
2023/07/27 03:11:49;;;;;;;;;1.00;1.00;;;;;20.81;58.64;100347.06;5032368;28;45616;-77
2023/07/27 03:14:14;;;;;;;;;0.00;0.00;;;;;20.81;59.15;100352.38;5035741;28;45702;-77
2023/07/27 03:16:39;;;;;;;;;0.75;0.75;;;;;20.85;58.74;100347.66;5037357;28;45627;-77
2023/07/27 03:19:05;;;;;;;;;0.00;0.00;;;;;20.82;58.97;100348.75;5046786;28;64231;-76
2023/07/27 03:21:30;;;;;;;;;0.50;0.50;;;;;20.80;59.48;100342.69;5016904;28;64182;-78
2023/07/27 03:23:55;;;;;;;;;1.00;1.00;;;;;20.79;59.29;100349.00;5026950;28;45675;-77
2023/07/27 03:26:21;;;;;;;;;0.75;0.75;;;;;20.76;59.35;100343.91;5038234;28;45430;-78
2023/07/27 03:28:46;;;;;;;;;0.00;0.00;;;;;20.78;59.95;100349.94;5038313;28;45327;-77
2023/07/27 03:31:23;;;;;;;;;1.00;1.00;;;;;20.76;59.26;100356.34;5030824;28;52714;-78
2023/07/27 03:33:49;;;;;;;;;1.00;1.00;;;;;20.77;59.13;100361.56;5036772;28;46311;-77
2023/07/27 03:36:16;;;;;;;;;0.00;0.00;;;;;20.76;59.47;100357.19;5031913;28;45376;-77
2023/07/27 03:38:41;;;;;;;;;0.00;0.00;;;;;20.70;59.84;100349.69;5032384;28;45390;-77
2023/07/27 03:41:06;;;;;;;;;0.00;0.00;;;;;20.68;59.42;100348.94;5018409;28;45447;-77
2023/07/27 03:43:32;;;;;;;;;1.00;0.00;;;;;20.66;59.66;100351.75;5035000;28;45468;-77
2023/07/27 03:45:57;;;;;;;;;0.00;0.00;;;;;20.70;59.55;100354.16;5033634;28;46104;-77
2023/07/27 03:48:25;;;;;;;;;1.00;0.00;;;;;20.70;59.55;100343.50;5034953;28;45348;-78
2023/07/27 03:50:51;;;;;;;;;1.00;0.00;;;;;20.71;59.26;100345.22;5033187;28;45678;-77
2023/07/27 03:53:17;;;;;;;;;0.75;0.75;;;;;20.72;59.32;100357.56;5033201;28;48125;-76
2023/07/27 03:55:42;;;;;;;;;1.00;1.00;;;;;20.68;59.90;100354.25;5030852;28;45364;-77
2023/07/27 03:58:07;;;;;;;;;0.00;0.00;;;;;20.68;59.80;100346.28;5029435;28;52133;-76
2023/07/27 04:00:33;;;;;;;;;0.00;0.00;;;;;20.68;59.66;100346.28;5036736;28;50645;-75
2023/07/27 04:03:06;;;;;;;;;0.00;0.00;;;;;20.71;59.76;100342.56;5013166;28;69361;-75
2023/07/27 04:05:31;;;;;;;;;0.25;0.25;;;;;20.70;59.89;100349.69;5036631;28;45911;-74
2023/07/27 04:07:57;;;;;;;;;0.00;0.00;;;;;20.62;60.06;100336.13;5038949;28;45470;-74
2023/07/27 04:10:22;;;;;;;;;0.00;0.00;;;;;20.66;59.67;100353.53;5037298;28;45525;-74
2023/07/27 04:12:48;;;;;;;;;0.00;0.00;;;;;20.69;59.66;100363.94;5033565;28;45408;-74
2023/07/27 04:15:13;;;;;;;;;0.00;0.00;;;;;20.65;59.94;100354.50;5041078;28;45595;-74
2023/07/27 04:17:39;;;;;;;;;1.50;0.75;;;;;20.63;60.01;100346.66;5028426;28;61582;-75
2023/07/27 04:20:04;;;;;;;;;0.00;0.00;;;;;20.66;59.50;100350.88;5036544;28;45451;-75
2023/07/27 04:22:30;;;;;;;;;2.00;0.00;;;;;20.68;59.67;100356.91;5030436;28;48440;-75
2023/07/27 04:24:55;;;;;;;;;0.00;0.00;;;;;20.65;59.47;100350.03;5048666;28;51538;-75
2023/07/27 04:27:20;;;;;;;;;1.50;0.00;;;;;20.64;59.31;100342.16;5023621;28;46374;-75
2023/07/27 04:29:46;;;;;;;;;0.00;0.00;;;;;20.67;60.40;100350.75;5016783;28;47981;-75
2023/07/27 04:32:11;;;;;;;;;0.00;0.00;;;;;20.67;59.94;100341.94;5022222;28;64723;-75
2023/07/27 04:34:36;;;;;;;;;0.00;0.00;;;;;20.62;59.24;100344.94;5026040;28;45508;-75
2023/07/27 04:37:03;;;;;;;;;0.00;0.00;;;;;20.65;60.44;100347.38;5048965;28;62780;-74
2023/07/27 04:39:28;;;;;;;;;2.00;0.00;;;;;20.59;60.06;100329.22;5020879;28;45606;-75
2023/07/27 04:41:53;;;;;;;;;0.75;0.75;;;;;20.65;60.09;100349.19;5012659;28;68797;-75
2023/07/27 04:44:19;;;;;;;;;1.00;0.00;;;;;20.67;60.11;100348.09;5031355;28;70789;-74
2023/07/27 04:46:44;;;;;;;;;0.25;0.00;;;;;20.70;59.84;100349.69;5032071;28;45361;-75
2023/07/27 04:49:10;;;;;;;;;0.50;0.00;;;;;20.69;60.51;100344.50;5032881;28;45195;-75
2023/07/27 04:51:35;;;;;;;;;0.00;0.00;;;;;20.73;60.04;100356.56;5032655;28;46334;-75
2023/07/27 04:54:01;;;;;;;;;0.00;0.00;;;;;20.74;60.20;100361.78;5033885;28;58151;-75
2023/07/27 04:56:26;;;;;;;;;0.00;0.00;;;;;20.75;60.08;100349.31;5020483;28;45507;-75
2023/07/27 04:58:52;;;;;;;;;1.25;0.00;;;;;20.79;59.83;100340.16;5032508;28;56859;-74
2023/07/27 05:01:17;;;;;;;;;0.75;0.75;;;;;20.78;60.16;100336.63;5041074;28;49309;-75
2023/07/27 05:03:43;;;;;;;;;0.00;0.00;;;;;20.80;59.74;100332.06;5017357;28;51059;-75
2023/07/27 05:06:08;;;;;;;;;0.00;0.00;;;;;20.76;60.05;100327.94;5039431;28;45463;-75
2023/07/27 05:08:33;;;;;;;;;0.00;0.00;;;;;20.80;60.31;100348.00;5035996;28;59498;-74
2023/07/27 05:10:59;;;;;;;;;0.00;0.00;;;;;20.79;60.07;100330.38;5036177;28;61740;-74
2023/07/27 05:13:24;;;;;;;;;0.00;0.00;;;;;20.79;59.93;100325.06;5035820;28;70920;-75
2023/07/27 05:15:49;;;;;;;;;1.00;1.00;;;;;20.83;60.00;100342.47;5037132;28;45773;-75
2023/07/27 05:18:15;;;;;;;;;0.00;0.00;;;;;20.83;60.07;100338.97;5028181;28;54312;-75
2023/07/27 05:20:40;;;;;;;;;0.00;0.00;;;;;20.82;60.41;100343.44;5023054;28;63145;-75
2023/07/27 05:23:05;;;;;;;;;0.00;0.00;;;;;20.81;60.94;100336.41;5032506;28;48932;-75
2023/07/27 05:25:31;;;;;;;;;0.00;0.00;;;;;20.78;59.88;100336.63;5012055;28;56917;-75
2023/07/27 05:27:56;;;;;;;;;0.25;0.00;;;;;20.83;60.12;100341.63;5011584;28;45419;-75
2023/07/27 05:30:22;;;;;;;;;0.50;0.00;;;;;20.86;60.44;100336.06;5033229;28;45495;-75
2023/07/27 05:32:47;;;;;;;;;1.00;0.00;;;;;20.87;60.06;100337.75;5028535;28;71242;-72
2023/07/27 05:35:12;;;;;;;;;1.75;0.00;;;;;20.90;59.85;100345.50;5016367;28;45429;-74
2023/07/27 05:37:38;;;;;;;;;2.00;0.00;;;;;20.86;60.14;100342.22;5024661;28;53511;-83
2023/07/27 05:40:04;;;;;;;;;0.50;0.50;;;;;20.91;60.90;100341.03;5026606;28;46210;-76
2023/07/27 05:42:30;;;;;;;;;0.00;0.00;;;;;20.89;59.93;100335.81;5034944;28;45395;-73
2023/07/27 05:44:55;;;;;;;;;0.00;0.00;;;;;20.92;60.40;100348.88;5032904;28;45659;-74
2023/07/27 05:47:20;;;;;;;;;1.00;0.00;;;;;20.90;60.49;100334.88;5033186;28;52606;-74
2023/07/27 05:49:46;;;;;;;;;0.00;0.00;;;;;20.94;60.66;100327.50;5032895;28;66052;-73
2023/07/27 05:52:11;;;;;;;;;0.50;0.00;;;;;20.96;60.66;100337.03;5033381;28;46711;-71
2023/07/27 05:54:37;;;;;;;;;0.25;0.00;;;;;20.96;60.15;100344.19;5035958;28;52360;-72
2023/07/27 05:57:02;;;;;;;;;0.00;0.00;;;;;20.97;60.83;100345.88;5034212;28;45565;-67
2023/07/27 05:59:28;;;;;;;;;1.00;0.00;;;;;20.96;59.87;100344.19;5035670;28;45498;-67
2023/07/27 06:01:53;;;;;;;;;2.50;1.00;;;;;20.95;60.33;100346.00;5018576;28;45416;-67
2023/07/27 06:04:19;;;;;;;;;1.00;1.00;;;;;20.96;60.68;100344.19;5036371;28;45547;-67
2023/07/27 06:06:45;;;;;;;;;1.00;1.00;;;;;21.01;60.53;100337.53;5035293;28;45493;-69
2023/07/27 06:09:11;;;;;;;;;0.75;0.75;;;;;20.99;60.19;100323.50;5037427;28;45487;-66
2023/07/27 06:11:36;;;;;;;;;2.00;0.75;;;;;21.02;60.90;100322.44;5032645;28;45488;-67
2023/07/27 06:14:02;;;;;;;;;0.00;0.00;;;;;21.04;60.48;100326.66;5025450;28;45336;-67
2023/07/27 06:16:27;;;;;;;;;0.00;0.00;;;;;21.05;59.95;100324.84;5034204;28;45270;-67
2023/07/27 06:18:53;;;;;;;;;2.25;1.50;;;;;21.10;60.17;100325.34;5038685;28;58729;-67
2023/07/27 06:21:18;;;;;;;;;2.75;1.25;;;;;21.17;60.24;100321.22;5034378;28;55163;-67
2023/07/27 06:23:44;;;;;;;;;1.00;1.00;;;;;21.20;59.44;100312.16;5037464;28;45358;-66
2023/07/27 06:26:09;;;;;;;;;1.00;1.00;;;;;21.34;59.49;100338.53;5036958;28;45336;-67
2023/07/27 06:28:35;;;;;;;;;0.75;0.75;;;;;21.42;59.55;100333.47;5034176;28;71775;-68
2023/07/27 06:31:02;;;;;;;;;0.50;0.50;;;;;21.50;59.54;100327.56;5014422;28;46117;-67
2023/07/27 06:33:27;;;;;;;;;1.00;1.00;;;;;21.53;58.89;100324.66;5033042;28;45503;-76
2023/07/27 06:35:52;;;;;;;;;0.00;0.00;;;;;21.55;58.19;100325.38;5032954;28;45920;-69
2023/07/27 06:38:18;;;;;;;;;2.75;1.00;;;;;21.59;58.16;100331.31;5030931;28;58811;-68
2023/07/27 06:40:43;;;;;;;;;3.00;1.50;;;;;21.64;58.37;100339.78;5029857;28;45456;-68
2023/07/27 06:43:09;;;;;;;;;0.00;0.00;;;;;21.68;58.05;100338.56;5022750;28;52609;-69
2023/07/27 06:45:34;;;;;;;;;1.00;0.75;;;;;21.69;57.84;100348.25;5010010;28;45549;-69
2023/07/27 06:48:00;;;;;;;;;1.00;1.00;;;;;21.69;58.00;100358.91;5038352;28;47980;-72
2023/07/27 06:50:26;;;;;;;;;1.00;1.00;;;;;21.75;57.60;100354.91;5030745;28;45954;-69
2023/07/27 06:52:51;;;;;;;;;1.00;1.00;;;;;21.80;57.30;100353.56;5032354;28;46103;-73
2023/07/27 06:55:17;;;;;;;;;1.50;1.50;;;;;21.87;57.34;100343.25;5033680;28;63331;-74
2023/07/27 06:57:43;;;;;;;;;2.00;1.00;;;;;21.97;56.96;100349.53;5034789;28;45563;-70
2023/07/27 07:00:08;;;;;;;;;3.00;1.00;;;;;21.98;56.64;100342.38;5037807;28;45442;-76
2023/07/27 07:02:34;;;;;;;;;1.50;1.00;;;;;22.01;56.95;100342.16;5026016;28;46296;-67
2023/07/27 07:04:59;;;;;;;;;1.50;1.50;;;;;22.07;56.69;100352.28;5031725;28;45437;-67
2023/07/27 07:07:25;;;;;;;;;0.25;0.00;;;;;22.05;56.37;100342.75;5027332;28;74604;-68
2023/07/27 07:09:52;;;;;;;;;2.00;1.00;;;;;22.07;56.80;100354.94;5028242;28;66175;-67
2023/07/27 07:12:17;;;;;;;;;1.75;0.75;;;;;22.03;56.71;100347.31;5029203;28;45237;-70
2023/07/27 07:14:43;;;;;;;;;3.00;2.00;;;;;22.04;56.71;100351.69;5033377;28;45229;-68
2023/07/27 07:17:08;;;;;;;;;2.25;0.50;;;;;22.09;56.74;100344.16;5030957;28;46443;-68
2023/07/27 07:19:33;;;;;;;;;1.75;1.75;;;;;22.09;57.38;100345.00;5022544;28;45743;-68
2023/07/27 07:21:59;;;;;;;;;2.00;0.25;;;;;22.06;56.72;100347.94;5022754;28;45443;-75
2023/07/27 07:24:24;;;;;;;;;4.50;1.25;;;;;22.04;57.05;100341.03;5019134;28;47699;-76
2023/07/27 07:26:50;;;;;;;;;1.75;1.00;;;;;22.09;56.26;100352.16;5034933;28;45613;-77
2023/07/27 07:29:15;;;;;;;;;1.25;1.00;;;;;22.10;56.27;100336.06;5053257;28;62387;-76
2023/07/27 07:31:40;;;;;;;;;1.25;1.25;;;;;22.09;56.20;100339.69;5035784;28;45501;-76
2023/07/27 07:34:06;;;;;;;;;2.25;1.00;;;;;22.20;56.24;100354.78;5030356;28;57987;-75
2023/07/27 07:36:32;;;;;;;;;2.00;2.00;;;;;22.25;55.50;100352.59;5032528;28;70778;-76
2023/07/27 07:38:57;;;;;;;;;3.75;2.00;;;;;22.28;54.16;100347.06;5034484;28;45403;-76
2023/07/27 07:41:22;;;;;;;;;1.25;1.25;;;;;22.33;53.09;100355.53;5034758;28;56184;-75
2023/07/27 07:43:48;;;;;;;;;3.50;2.00;;;;;22.30;53.44;100358.44;5026066;28;55349;-76
2023/07/27 07:46:14;;;;;;;;;2.00;2.00;;;;;22.31;53.45;100370.81;5032032;28;45506;-76
2023/07/27 07:48:39;;;;;;;;;2.00;2.00;;;;;22.36;53.43;100381.94;5039229;28;45323;-76
2023/07/27 07:51:11;;;;;;;;;2.50;2.00;;;;;22.47;52.63;100374.84;5037565;28;45430;-76
2023/07/27 07:53:37;;;;;;;;;3.75;3.00;;;;;22.53;52.93;100382.34;5038943;28;45663;-75
2023/07/27 07:56:03;;;;;;;;;4.00;2.25;;;;;22.58;52.48;100374.81;5036526;28;48167;-76
2023/07/27 07:58:28;;;;;;;;;3.00;2.00;;;;;22.64;51.70;100373.44;5012293;28;45321;-75
2023/07/27 08:00:54;;;;;;;;;2.00;1.00;;;;;22.66;51.35;100374.16;5026539;28;45415;-76
2023/07/27 08:03:19;;;;;;;;;3.00;1.75;;;;;22.67;51.52;100367.88;5052291;28;45682;-76
2023/07/27 08:05:44;;;;;;;;;2.75;0.75;;;;;22.66;51.46;100360.84;5027622;28;47515;-75
2023/07/27 08:08:10;;;;;;;;;2.00;2.00;;;;;22.68;51.49;100359.75;5033509;28;73226;-76
2023/07/27 08:10:35;;;;;;;;;6.25;2.75;;;;;22.66;51.37;100361.66;5021318;28;45679;-76
2023/07/27 08:13:00;;;;;;;;;3.00;1.00;;;;;22.59;51.41;100349.81;5022523;28;54952;-76
2023/07/27 08:15:26;;;;;;;;;2.00;2.00;;;;;22.59;52.04;100356.97;5022718;28;46566;-76
2023/07/27 08:17:51;;;;;;;;;1.50;1.50;;;;;22.58;51.86;100344.66;5048094;28;45553;-77
2023/07/27 08:20:16;;;;;;;;;3.25;2.00;;;;;22.64;51.27;100352.94;5032620;28;59504;-77
2023/07/27 08:22:42;;;;;;;;;1.25;1.00;;;;;22.72;51.46;100358.50;5031875;28;60820;-77
2023/07/27 08:25:07;;;;;;;;;2.25;1.00;;;;;22.82;51.30;100355.03;5031963;28;53853;-77
2023/07/27 08:27:36;;;;;;;;;1.00;0.75;;;;;22.97;50.73;100344.91;5026894;28;45300;-77
2023/07/27 08:30:03;;;;;;;;;1.00;1.00;;;;;23.18;50.77;100353.78;5019557;28;45362;-77
2023/07/27 08:32:28;;;;;;;;;1.00;1.00;;;;;23.36;50.72;100342.47;5015131;28;45434;-77
2023/07/27 08:34:53;;;;;;;;;2.00;1.00;;;;;23.54;49.91;100353.38;5031215;28;46317;-77
2023/07/27 08:37:19;;;;;;;;;3.00;0.00;;;;;23.61;50.21;100343.84;5033393;28;60362;-77
2023/07/27 08:39:44;;;;;;;;;0.25;0.25;;;;;23.67;49.54;100327.25;5019612;28;49743;-77
2023/07/27 08:42:14;;;;;;;;;0.50;0.25;;;;;23.68;49.60;100335.13;5030262;28;45459;-77
2023/07/27 08:44:40;;;;;;;;;1.00;1.00;;;;;23.69;48.65;100344.84;5020589;28;46941;-77
2023/07/27 08:47:06;;;;;;;;;1.00;1.00;;;;;23.59;49.48;100332.44;5024655;28;45428;-77
2023/07/27 08:49:32;;;;;;;;;3.00;0.25;;;;;23.56;49.42;100346.91;5037348;28;57490;-77
2023/07/27 08:51:57;;;;;;;;;1.00;1.00;;;;;23.47;49.52;100339.69;5018521;28;45645;-77
2023/07/27 08:54:23;;;;;;;;;1.50;1.00;;;;;23.45;49.70;100336.31;5030897;28;74084;-77
2023/07/27 08:56:48;;;;;;;;;0.25;0.25;;;;;23.42;49.61;100326.72;5030691;28;62916;-77
2023/07/27 08:59:14;;;;;;;;;3.50;0.50;;;;;23.48;49.23;100334.22;5032477;28;45293;-77
2023/07/27 09:01:39;;;;;;;;;2.25;0.75;;;;;23.56;49.25;100336.22;5035067;28;45184;-77
2023/07/27 09:04:05;;;;;;;;;1.75;1.50;;;;;23.67;48.79;100337.94;5036459;28;65381;-77
2023/07/27 09:06:43;;;;;;;;;1.00;0.50;;;;;23.81;48.63;100342.91;5016139;28;45267;-77
2023/07/27 09:09:21;;;;;;;;;0.50;0.50;;;;;23.88;49.03;100343.22;5039741;28;45329;-77
2023/07/27 09:11:46;;;;;;;;;1.75;1.75;;;;;23.94;48.81;100339.16;5033278;28;45402;-77
2023/07/27 09:14:13;;;;;;;;;3.00;2.00;;;;;24.00;48.24;100355.50;5032857;28;45291;-77
2023/07/27 09:16:38;;;;;;;;;4.25;1.00;;;;;23.93;48.00;100348.16;5037370;28;45630;-76
2023/07/27 09:19:04;;;;;;;;;0.25;0.25;;;;;23.82;47.57;100343.78;5039269;28;45328;-77
2023/07/27 09:21:44;;;;;;;;;2.50;1.00;;;;;23.78;48.15;100353.00;5014591;28;45391;-77
2023/07/27 09:24:14;;;;;;;;;2.00;2.00;;;;;23.68;48.54;100350.31;5023129;28;47457;-77
2023/07/27 09:26:44;;;;;;;;;3.25;1.50;;;;;23.67;48.85;100353.97;5023998;28;45281;-77
2023/07/27 09:29:09;;;;;;;;;2.75;2.00;;;;;23.67;48.99;100346.81;5039225;28;45383;-77
2023/07/27 09:31:43;;;;;;;;;1.25;1.25;;;;;23.62;48.92;100341.03;5023229;28;67986;-77
2023/07/27 09:34:08;;;;;;;;;2.50;1.00;;;;;23.57;48.59;100348.59;5036848;28;45437;-76
2023/07/27 09:36:34;;;;;;;;;2.75;1.00;;;;;23.57;48.33;100359.28;5045533;28;46420;-77
2023/07/27 09:39:00;;;;;;;;;2.00;0.25;;;;;23.53;48.19;100359.69;5031146;28;45371;-77
2023/07/27 09:41:25;;;;;;;;;0.50;0.50;;;;;23.52;48.51;100350.81;5021903;28;64212;-77
2023/07/27 09:43:52;;;;;;;;;1.50;1.00;;;;;23.52;48.60;100344.66;5039527;28;46494;-77
2023/07/27 09:46:22;;;;;;;;;1.00;1.00;;;;;23.53;48.82;100349.81;5023629;28;45636;-77
2023/07/27 09:48:47;;;;;;;;;0.25;0.25;;;;;23.59;48.48;100343.13;5039334;28;45470;-77
2023/07/27 09:51:12;;;;;;;;;3.00;0.25;;;;;23.55;48.05;100334.53;5035559;28;62522;-77
2023/07/27 09:53:42;;;;;;;;;3.50;1.25;;;;;23.56;48.42;100332.72;5021667;28;59045;-77
2023/07/27 09:56:08;;;;;;;;;0.25;0.25;;;;;23.53;48.27;100336.47;5023143;28;45714;-77
2023/07/27 09:58:35;;;;;;;;;0.25;0.25;;;;;23.64;48.58;100340.91;5028999;28;45423;-77
2023/07/27 10:01:01;;;;;;;;;1.50;1.25;;;;;23.72;47.84;100330.34;5033806;28;45379;-77
2023/07/27 10:03:26;;;;;;;;;2.25;1.00;;;;;23.82;48.02;100343.78;5032724;28;70305;-77
2023/07/27 10:05:51;;;;;;;;;1.25;1.25;;;;;23.86;48.26;100345.19;5037333;28;49538;-77
2023/07/27 10:08:17;;;;;;;;;2.00;1.25;;;;;23.88;47.79;100349.41;5035014;28;66102;-77
2023/07/27 10:10:43;;;;;;;;;3.25;3.25;;;;;23.88;47.19;100348.56;5037325;28;45356;-77
2023/07/27 10:13:30;;;;;;;;;1.00;0.50;;;;;23.92;47.49;100342.00;5035918;28;46894;-77
2023/07/27 10:15:56;;;;;;;;;1.00;1.00;;;;;23.95;47.37;100347.03;5034016;28;45309;-77
2023/07/27 10:18:29;;;;;;;;;1.00;1.00;;;;;23.99;47.56;100332.44;5019827;28;45456;-76
2023/07/27 10:20:56;;;;;;;;;2.00;1.50;;;;;24.06;47.50;100340.72;5034102;28;45591;-77
2023/07/27 10:23:29;;;;;;;;;2.25;1.50;;;;;24.07;47.61;100345.09;5023369;28;48063;-77
2023/07/27 10:25:54;;;;;;;;;6.00;4.00;;;;;24.07;47.68;100337.91;5037021;28;45399;-77
2023/07/27 10:28:35;;;;;;;;;2.25;1.25;;;;;24.02;47.59;100336.66;5033514;28;45514;-77
2023/07/27 10:31:25;;;;;;;;;1.25;1.25;;;;;24.08;47.47;100349.44;5032891;28;45550;-77
2023/07/27 10:33:59;;;;;;;;;5.25;3.00;;;;;24.17;47.30;100334.41;5037115;28;45927;-77
2023/07/27 10:36:48;;;;;;;;;3.00;2.00;;;;;24.27;47.45;100340.59;5037800;28;46109;-77
2023/07/27 10:39:34;;;;;;;;;3.75;2.25;;;;;24.39;46.77;100346.69;5034848;28;45470;-77
2023/07/27 10:42:12;;;;;;;;;1.75;1.75;;;;;24.34;46.90;100336.38;5033127;28;45533;-76
2023/07/27 10:44:47;;;;;;;;;2.50;1.25;;;;;24.34;46.19;100333.72;5022415;28;46314;-77
2023/07/27 10:47:20;;;;;;;;;3.25;1.25;;;;;24.26;46.61;100338.94;5019654;28;45819;-77
2023/07/27 10:49:48;;;;;;;;;2.25;0.75;;;;;24.34;47.04;100349.75;5033174;28;45300;-77
2023/07/27 10:52:16;;;;;;;;;2.00;1.00;;;;;24.42;46.73;100341.88;5064905;27;45285;-77
2023/07/27 10:54:42;;;;;;;;;3.25;2.25;;;;;24.53;46.67;100337.38;5022509;28;47099;-77
2023/07/27 10:57:09;;;;;;;;;2.50;2.50;;;;;24.68;46.35;100343.16;5021856;28;45507;-77
2023/07/27 10:59:37;;;;;;;;;3.00;3.00;;;;;24.73;45.93;100339.06;5032174;28;45510;-77
2023/07/27 11:02:05;;;;;;;;;2.75;2.75;;;;;24.68;45.48;100337.81;5018254;28;45566;-77
2023/07/27 11:04:33;;;;;;;;;3.75;2.00;;;;;24.70;46.20;100344.72;5034444;28;45580;-77
2023/07/27 11:06:59;;;;;;;;;1.25;1.25;;;;;24.60;46.03;100333.19;5019579;28;45743;-77
2023/07/27 11:09:24;;;;;;;;;2.00;2.00;;;;;24.51;46.09;100334.84;5053400;28;46508;-76
2023/07/27 11:11:52;;;;;;;;;3.25;2.25;;;;;24.43;46.65;100334.69;5032610;28;45356;-77
2023/07/27 11:14:18;;;;;;;;;4.50;2.75;;;;;24.33;47.34;100337.38;5040420;28;45248;-77
2023/07/27 11:16:44;;;;;;;;;3.25;1.25;;;;;24.29;47.99;100333.28;5035592;28;45250;-77
2023/07/27 11:19:09;;;;;;;;;4.25;1.25;;;;;24.21;48.46;100331.31;5034956;28;59411;-77
2023/07/27 11:21:40;;;;;;;;;1.25;1.25;;;;;24.16;49.00;100324.72;5034157;28;45440;-77